TimeCST,TemperatureF,Dew PointF,Humidity,Sea Level PressureIn,VisibilityMPH,Wind Direction,Wind SpeedMPH,Gust SpeedMPH,PrecipitationIn,Events,Conditions,WindDirDegrees,DateUTC
12:54 AM,17.1,12.9,84,30.17,9.0,West,3.5,-,N/A,,Clear,280,2013-01-16 06:54:00
1:54 AM,16.0,12.0,84,30.17,10.0,Calm,Calm,-,N/A,,Clear,0,2013-01-16 07:54:00
2:54 AM,16.0,10.9,81,30.15,10.0,Calm,Calm,-,N/A,,Clear,0,2013-01-16 08:54:00
3:54 AM,14.0,10.9,88,30.13,8.0,Calm,Calm,-,N/A,,Clear,0,2013-01-16 09:54:00
4:54 AM,15.1,10.0,80,30.10,10.0,SW,3.5,-,N/A,,Clear,220,2013-01-16 10:54:00
5:54 AM,15.1,10.0,80,30.09,10.0,WSW,4.6,-,N/A,,Clear,240,2013-01-16 11:54:00
6:54 AM,14.0,10.0,84,30.09,10.0,SW,6.9,-,N/A,,Clear,220,2013-01-16 12:54:00
7:54 AM,17.1,12.9,84,30.07,9.0,SSW,6.9,-,N/A,,Clear,200,2013-01-16 13:54:00
8:54 AM,21.0,15.1,78,30.07,10.0,SSW,10.4,-,N/A,,Clear,210,2013-01-16 14:54:00
9:54 AM,24.1,17.1,75,30.06,10.0,SW,11.5,-,N/A,,Clear,220,2013-01-16 15:54:00
10:54 AM,28.9,19.9,69,30.04,10.0,SW,12.7,-,N/A,,Clear,220,2013-01-16 16:54:00
11:54 AM,32.0,21.0,64,29.99,10.0,SW,17.3,-,N/A,,Clear,220,2013-01-16 17:54:00
12:54 PM,34.0,23.0,64,29.97,10.0,SW,18.4,-,N/A,,Clear,220,2013-01-16 18:54:00
1:54 PM,35.6,23.0,60,29.91,10.0,SW,17.3,-,N/A,,Clear,230,2013-01-16 19:54:00
2:54 PM,36.0,23.0,59,29.96,10.0,SW,12.7,-,N/A,,Overcast,230,2013-01-16 20:54:00
3:13 PM,37.0,21.9,54,29.94,10.0,WSW,17.3,-,N/A,,Overcast,240,2013-01-16 21:13:00
3:54 PM,37.0,21.0,52,30.00,10.0,West,11.5,-,N/A,,Overcast,260,2013-01-16 21:54:00
4:54 PM,37.0,21.0,52,30.00,10.0,WSW,9.2,-,N/A,,Overcast,240,2013-01-16 22:54:00
5:54 PM,36.0,23.0,59,30.03,10.0,WSW,6.9,-,N/A,,Overcast,250,2013-01-16 23:54:00
6:54 PM,36.0,23.0,59,30.07,10.0,WSW,6.9,-,N/A,,Overcast,250,2013-01-17 00:54:00
7:54 PM,36.0,23.0,59,30.06,10.0,WSW,10.4,-,N/A,,Overcast,250,2013-01-17 01:54:00
8:54 PM,37.0,25.0,62,30.09,10.0,West,9.2,-,N/A,,Overcast,260,2013-01-17 02:54:00
9:54 PM,37.0,25.0,62,30.08,10.0,WSW,5.8,-,N/A,,Overcast,240,2013-01-17 03:54:00
10:54 PM,36.0,26.1,67,30.09,10.0,SSW,4.6,-,N/A,,Overcast,210,2013-01-17 04:54:00
11:54 PM,34.0,26.1,73,30.11,10.0,SW,3.5,-,N/A,,Mostly Cloudy,230,2013-01-17 05:54:00